createdAt,value
2023-01-25T00:00:45.746Z,14.77
2023-01-25T00:03:12.485Z,13.70
2023-01-25T00:05:39.163Z,13.02
2023-01-25T00:08:05.976Z,16.00
2023-01-25T00:10:32.621Z,14.05
2023-01-25T00:12:59.210Z,14.30
2023-01-25T00:15:25.845Z,12.10
2023-01-25T00:17:52.643Z,13.75
2023-01-25T00:20:19.373Z,13.90
2023-01-25T00:22:45.961Z,13.75
2023-01-25T00:25:12.759Z,11.15
2023-01-25T00:27:39.871Z,11.68
2023-01-25T00:30:07.090Z,12.98
2023-01-25T00:32:42.081Z,13.77
2023-01-25T00:35:11.474Z,11.90
2023-01-25T00:37:40.573Z,12.52
2023-01-25T00:40:09.070Z,12.70
2023-01-25T00:42:35.686Z,12.27
2023-01-25T00:45:02.365Z,13.05
2023-01-25T00:47:29.602Z,12.18
2023-01-25T00:49:56.355Z,11.52
2023-01-25T00:52:23.077Z,11.65
2023-01-25T00:54:49.687Z,14.45
2023-01-25T00:57:16.293Z,13.98
2023-01-25T00:59:44.452Z,13.93
2023-01-25T01:02:11.941Z,13.30
2023-01-25T01:04:38.778Z,12.85
2023-01-25T01:07:05.591Z,13.50
2023-01-25T01:09:32.522Z,16.35
2023-01-25T01:11:59.125Z,16.85
2023-01-25T01:14:25.859Z,16.40
2023-01-25T01:16:52.553Z,15.93
2023-01-25T01:19:19.243Z,16.15
2023-01-25T01:21:45.938Z,15.45
2023-01-25T01:24:12.783Z,16.38
2023-01-25T01:26:39.436Z,18.15
2023-01-25T01:29:06.336Z,15.40
2023-01-25T01:31:33.236Z,14.65
2023-01-25T01:34:01.047Z,15.55
2023-01-25T01:36:29.205Z,15.32
2023-01-25T01:38:55.932Z,16.17
2023-01-25T01:41:22.674Z,14.18
2023-01-25T01:43:49.389Z,14.32
2023-01-25T01:46:21.809Z,15.82
2023-01-25T01:48:55.508Z,16.58
2023-01-25T01:51:44.863Z,13.77
2023-01-25T01:54:25.839Z,15.13
2023-01-25T01:56:58.848Z,15.48
2023-01-25T01:59:30.697Z,14.95
2023-01-25T02:01:57.424Z,15.90
2023-01-25T02:04:24.253Z,15.15
2023-01-25T02:06:58.853Z,14.38
2023-01-25T02:09:26.175Z,14.63
2023-01-25T02:11:52.901Z,15.40
2023-01-25T02:14:19.623Z,14.38
2023-01-25T02:16:46.303Z,16.02
2023-01-25T02:19:21.701Z,14.25
2023-01-25T02:21:48.380Z,15.80
2023-01-25T02:24:22.879Z,14.55
2023-01-25T02:26:49.649Z,13.38
2023-01-25T02:29:16.245Z,13.95
2023-01-25T02:31:46.036Z,13.43
2023-01-25T02:34:12.976Z,12.85
2023-01-25T02:36:39.595Z,12.40
2023-01-25T02:39:08.798Z,14.20
2023-01-25T02:41:37.540Z,13.57
2023-01-25T02:44:07.034Z,12.70
2023-01-25T02:46:36.004Z,13.45
2023-01-25T02:49:03.392Z,12.10
2023-01-25T02:51:32.804Z,11.77
2023-01-25T02:53:59.604Z,10.90
2023-01-25T02:56:26.872Z,11.80
2023-01-25T02:58:53.551Z,14.00
2023-01-25T03:01:20.513Z,13.32
2023-01-25T03:03:47.231Z,13.15
2023-01-25T03:06:13.943Z,13.45
2023-01-25T03:08:40.578Z,11.43
2023-01-25T03:11:07.358Z,12.82
2023-01-25T03:13:34.502Z,13.88
2023-01-25T03:16:04.514Z,13.60
2023-01-25T03:18:31.161Z,12.20
2023-01-25T03:21:03.868Z,12.85
2023-01-25T03:23:30.440Z,11.85
2023-01-25T03:26:08.083Z,11.85
2023-01-25T03:28:34.681Z,12.40
2023-01-25T03:31:01.473Z,13.10
2023-01-25T03:33:28.104Z,13.75
2023-01-25T03:35:55.237Z,13.50
2023-01-25T03:38:22.395Z,12.38
2023-01-25T03:40:48.998Z,13.30
2023-01-25T03:43:15.691Z,13.70
2023-01-25T03:45:42.479Z,12.02
2023-01-25T03:48:09.214Z,12.57
2023-01-25T03:50:35.871Z,13.48
2023-01-25T03:53:07.115Z,14.55
2023-01-25T03:55:34.382Z,13.73
2023-01-25T03:58:01.066Z,13.45
2023-01-25T04:00:27.726Z,14.32
2023-01-25T04:02:54.312Z,14.70
2023-01-25T04:05:21.126Z,13.73
2023-01-25T04:07:47.749Z,13.32
2023-01-25T04:10:14.499Z,12.25
2023-01-25T04:12:41.121Z,11.93
2023-01-25T04:15:08.783Z,12.30
2023-01-25T04:17:35.494Z,11.27
2023-01-25T04:20:02.149Z,10.68
2023-01-25T04:22:28.748Z,12.48
2023-01-25T04:24:55.331Z,12.73
2023-01-25T04:27:22.071Z,12.45
2023-01-25T04:29:48.726Z,13.25
2023-01-25T04:32:15.541Z,10.98
2023-01-25T04:34:42.233Z,12.50
2023-01-25T04:37:08.820Z,12.10
2023-01-25T04:39:35.385Z,12.13
2023-01-25T04:42:01.971Z,13.10
2023-01-25T04:44:28.792Z,11.60
2023-01-25T04:46:55.403Z,11.90
2023-01-25T04:49:21.990Z,12.40
2023-01-25T04:51:48.577Z,12.02
2023-01-25T04:54:15.239Z,10.75
2023-01-25T04:56:41.897Z,12.65
2023-01-25T04:59:08.507Z,11.60
2023-01-25T05:01:35.189Z,13.25
2023-01-25T05:04:01.851Z,11.48
2023-01-25T05:06:28.500Z,13.30
2023-01-25T05:08:55.116Z,12.77
2023-01-25T05:11:21.735Z,10.57
2023-01-25T05:13:48.349Z,12.73
2023-01-25T05:16:14.955Z,10.98
2023-01-25T05:18:48.544Z,11.00
2023-01-25T05:21:35.596Z,8.13
2023-01-25T05:24:02.193Z,8.45
2023-01-25T05:26:48.720Z,9.82
2023-01-25T05:29:15.319Z,9.85
2023-01-25T05:31:41.934Z,10.85
2023-01-25T05:34:09.243Z,10.00
2023-01-25T05:36:35.863Z,10.25
2023-01-25T05:39:02.424Z,10.57
2023-01-25T05:41:29.317Z,11.52
2023-01-25T05:43:55.937Z,9.45
2023-01-25T05:46:22.622Z,10.15
2023-01-25T05:48:49.289Z,10.23
2023-01-25T05:51:15.927Z,10.43
2023-01-25T05:53:42.545Z,9.85
2023-01-25T05:56:10.696Z,8.88
2023-01-25T05:58:38.014Z,8.32
2023-01-25T06:01:05.556Z,8.75
2023-01-25T06:03:32.499Z,9.07
2023-01-25T06:06:02.259Z,10.43
2023-01-25T06:08:29.845Z,8.25
2023-01-25T06:10:56.490Z,10.45
2023-01-25T06:13:23.446Z,9.48
2023-01-25T06:15:55.209Z,7.47
2023-01-25T06:18:22.062Z,9.15
2023-01-25T06:20:48.684Z,8.73
2023-01-25T06:23:15.289Z,10.10
2023-01-25T06:25:41.986Z,10.18
2023-01-25T06:28:08.620Z,8.77
2023-01-25T06:30:35.970Z,8.52
2023-01-25T06:33:02.880Z,9.20
2023-01-25T06:35:30.882Z,10.20
2023-01-25T06:37:58.012Z,8.13
2023-01-25T06:40:25.018Z,10.63
2023-01-25T06:42:51.704Z,9.05
2023-01-25T06:45:18.357Z,9.70
2023-01-25T06:47:46.605Z,8.85
2023-01-25T06:50:13.254Z,8.80
2023-01-25T06:52:40.114Z,9.73
2023-01-25T06:55:08.349Z,8.07
2023-01-25T06:57:35.533Z,9.38
2023-01-25T07:00:02.372Z,8.20
2023-01-25T07:02:29.078Z,8.15
2023-01-25T07:04:55.780Z,9.20
2023-01-25T07:07:22.370Z,9.15
2023-01-25T07:09:48.971Z,10.57
2023-01-25T07:12:15.671Z,9.73
2023-01-25T07:14:42.296Z,11.57
2023-01-25T07:17:08.882Z,16.40
2023-01-25T07:19:35.552Z,10.82
2023-01-25T07:22:02.264Z,8.48
2023-01-25T07:24:29.656Z,9.10
2023-01-25T07:26:56.548Z,9.07
2023-01-25T07:29:23.389Z,9.73
2023-01-25T07:31:50.111Z,7.75
2023-01-25T07:34:16.847Z,8.40
2023-01-25T07:36:43.813Z,8.52
2023-01-25T07:39:11.573Z,7.13
2023-01-25T07:41:38.485Z,8.27
2023-01-25T07:44:05.167Z,8.82
2023-01-25T07:46:31.852Z,7.80
2023-01-25T07:48:59.563Z,9.93
2023-01-25T07:51:27.813Z,11.20
2023-01-25T07:53:56.872Z,9.68
2023-01-25T07:56:25.044Z,8.73
2023-01-25T07:58:54.701Z,9.90
2023-01-25T08:01:22.597Z,10.13
2023-01-25T08:03:49.590Z,11.45
2023-01-25T08:06:16.399Z,7.82
2023-01-25T08:08:45.628Z,9.38
2023-01-25T08:11:16.586Z,8.93
2023-01-25T08:13:46.152Z,9.93
2023-01-25T08:16:13.841Z,8.55
2023-01-25T08:18:40.486Z,7.32
2023-01-25T08:21:07.329Z,7.85
2023-01-25T08:23:34.073Z,7.53
2023-01-25T08:26:05.541Z,10.02
2023-01-25T08:28:32.333Z,9.23
2023-01-25T08:31:09.987Z,8.23
2023-01-25T08:33:36.919Z,8.88
2023-01-25T08:36:03.876Z,10.75
2023-01-25T08:38:30.926Z,9.57
2023-01-25T08:41:05.940Z,7.82
2023-01-25T08:43:33.010Z,9.80
2023-01-25T08:45:59.755Z,8.05
2023-01-25T08:48:26.393Z,7.78
2023-01-25T08:50:53.085Z,8.40
2023-01-25T08:53:19.789Z,9.88
2023-01-25T08:55:46.499Z,7.95
2023-01-25T08:58:13.843Z,8.73
2023-01-25T09:00:41.119Z,8.23
2023-01-25T09:03:10.379Z,9.88
2023-01-25T09:05:37.820Z,9.75
2023-01-25T09:08:06.841Z,9.90
2023-01-25T09:10:33.668Z,11.98
2023-01-25T09:13:00.460Z,9.88
2023-01-25T09:15:27.197Z,10.98
2023-01-25T09:17:54.225Z,9.40
2023-01-25T09:20:21.039Z,9.40
2023-01-25T09:22:47.759Z,8.88
2023-01-25T09:25:15.112Z,9.15
2023-01-25T09:27:41.966Z,8.70
2023-01-25T09:30:16.556Z,8.82
2023-01-25T09:32:45.280Z,7.63
2023-01-25T09:35:12.020Z,8.43
2023-01-25T09:37:39.021Z,8.85
2023-01-25T09:40:07.439Z,9.13
2023-01-25T09:45:36.369Z,8.43
2023-01-25T09:48:24.271Z,9.63
2023-01-25T09:51:01.369Z,9.43
2023-01-25T09:53:36.967Z,10.55
2023-01-25T09:56:09.327Z,9.68
2023-01-25T09:58:38.675Z,11.00
2023-01-25T10:01:29.508Z,18.00
2023-01-25T10:04:16.328Z,10.38
2023-01-25T10:06:59.871Z,9.32
2023-01-25T10:09:57.775Z,9.88
2023-01-25T10:12:25.202Z,9.80
2023-01-25T10:14:52.156Z,10.93
2023-01-25T10:17:39.478Z,9.75
2023-01-25T10:20:35.813Z,10.85
2023-01-25T10:23:42.332Z,10.65
2023-01-25T10:26:17.995Z,9.73
2023-01-25T10:29:08.471Z,9.48
2023-01-25T10:31:44.177Z,10.77
2023-01-25T10:34:18.579Z,11.02
2023-01-25T10:36:47.206Z,11.30
2023-01-25T10:39:13.845Z,11.50
2023-01-25T10:41:43.058Z,11.13
2023-01-25T10:44:26.662Z,10.57
2023-01-25T10:47:17.267Z,10.50
2023-01-25T10:49:50.610Z,11.52
2023-01-25T10:52:19.392Z,11.90
2023-01-25T10:54:46.835Z,11.82
2023-01-25T10:57:17.136Z,12.13
2023-01-25T10:59:46.178Z,14.52
2023-01-25T11:02:40.553Z,11.25
2023-01-25T11:05:29.750Z,11.82
2023-01-25T11:07:57.347Z,9.90
2023-01-25T11:10:39.640Z,10.20
2023-01-25T11:19:26.757Z,10.95
2023-01-25T11:21:54.363Z,11.98
2023-01-25T11:24:21.258Z,13.15
2023-01-25T11:26:47.925Z,12.85
2023-01-25T11:29:17.394Z,12.02
2023-01-25T11:31:48.311Z,10.90
2023-01-25T11:34:16.916Z,10.80
2023-01-25T11:37:07.557Z,11.00
2023-01-25T11:42:48.145Z,10.95
2023-01-25T11:48:10.984Z,14.77
2023-01-25T11:50:42.313Z,15.02
2023-01-25T11:53:41.162Z,13.50
2023-01-25T11:56:21.584Z,12.30
2023-01-25T11:58:58.862Z,15.63
2023-01-25T12:02:08.397Z,12.75
2023-01-25T12:05:21.583Z,12.90
2023-01-25T12:08:04.401Z,9.93
2023-01-25T12:10:57.937Z,10.05
2023-01-25T12:17:06.769Z,14.50
2023-01-25T12:20:08.069Z,10.35
2023-01-25T12:22:46.293Z,11.50
2023-01-25T12:25:52.376Z,10.27
2023-01-25T12:28:29.197Z,9.82
2023-01-25T12:31:05.603Z,9.90
2023-01-25T12:33:42.449Z,10.73
2023-01-25T12:36:34.260Z,18.15
2023-01-25T12:41:46.478Z,11.85
2023-01-25T12:44:17.462Z,12.02
2023-01-25T12:47:05.836Z,11.77
2023-01-25T12:49:38.344Z,13.43
2023-01-25T12:54:37.903Z,10.20
2023-01-25T13:00:02.225Z,11.73
2023-01-25T13:03:08.993Z,11.85
2023-01-25T13:05:58.676Z,10.90
2023-01-25T13:08:39.385Z,12.02
2023-01-25T13:11:43.129Z,11.68
2023-01-25T13:14:25.990Z,11.27
2023-01-25T13:17:09.473Z,12.13
2023-01-25T13:19:42.078Z,12.32
2023-01-25T13:22:10.746Z,13.75
2023-01-25T13:25:07.503Z,12.90
2023-01-25T13:27:36.390Z,12.43
2023-01-25T13:30:26.267Z,11.95
2023-01-25T13:32:55.515Z,15.90
2023-01-25T13:35:38.863Z,14.05
2023-01-25T13:41:03.563Z,11.30
2023-01-25T13:43:30.205Z,11.57
2023-01-25T13:45:57.041Z,16.15
2023-01-25T13:48:24.706Z,13.95
2023-01-25T13:50:55.802Z,12.18
2023-01-25T13:53:24.113Z,12.43
2023-01-25T13:55:52.617Z,11.57
2023-01-25T13:58:26.046Z,11.90
2023-01-25T14:00:57.123Z,10.85
2023-01-25T14:03:28.398Z,13.13
2023-01-25T14:05:56.805Z,15.00
2023-01-25T14:08:25.017Z,14.43
2023-01-25T14:10:51.980Z,13.48
2023-01-25T14:13:18.639Z,13.65
2023-01-25T14:16:01.384Z,12.18
2023-01-25T14:21:15.754Z,11.90
2023-01-25T14:23:42.420Z,12.60
2023-01-25T14:26:28.991Z,13.25
2023-01-25T14:29:01.995Z,15.60
2023-01-25T14:31:36.807Z,15.15
2023-01-25T14:34:04.708Z,14.80
2023-01-25T14:36:34.139Z,17.35
2023-01-25T14:39:02.526Z,17.45
2023-01-25T14:41:32.687Z,19.10
2023-01-25T14:44:11.185Z,16.85
2023-01-25T14:46:38.256Z,18.40
2023-01-25T14:52:09.732Z,16.70
2023-01-25T14:54:37.860Z,16.13
2023-01-25T14:57:06.054Z,18.02
2023-01-25T14:59:40.637Z,14.05
2023-01-25T15:02:32.892Z,15.13
2023-01-25T15:05:11.149Z,16.05
2023-01-25T15:07:44.196Z,16.35
2023-01-25T15:10:31.343Z,18.67
2023-01-25T15:13:07.657Z,15.98
2023-01-25T15:18:51.693Z,13.75
2023-01-25T15:21:27.696Z,14.85
2023-01-25T15:23:56.371Z,11.38
2023-01-25T15:26:25.665Z,11.77
2023-01-25T15:28:54.846Z,14.35
2023-01-25T15:31:24.984Z,12.88
2023-01-25T15:33:51.667Z,13.07
2023-01-25T15:36:18.593Z,14.13
2023-01-25T15:38:45.331Z,14.02
2023-01-25T15:41:18.753Z,13.73
2023-01-25T15:43:46.142Z,14.98
2023-01-25T15:46:20.712Z,13.27
2023-01-25T15:48:48.249Z,13.18
2023-01-25T15:51:14.928Z,17.50
2023-01-25T15:53:41.626Z,16.95
2023-01-25T15:56:13.180Z,15.63
2023-01-25T15:58:41.205Z,15.83
2023-01-25T16:01:07.954Z,15.65
2023-01-25T16:03:34.608Z,15.93
2023-01-25T16:06:04.393Z,13.63
2023-01-25T16:08:31.142Z,13.40
2023-01-25T16:10:57.768Z,13.32
2023-01-25T16:13:24.901Z,13.77
2023-01-25T16:15:53.318Z,15.73
2023-01-25T16:18:19.988Z,13.23
2023-01-25T16:20:46.628Z,13.60
2023-01-25T16:23:13.440Z,16.23
2023-01-25T16:25:40.672Z,15.55
2023-01-25T16:28:13.511Z,15.82
2023-01-25T16:30:41.071Z,16.02
2023-01-25T16:33:07.663Z,17.48
2023-01-25T16:35:34.274Z,14.23
2023-01-25T16:38:00.968Z,15.27
2023-01-25T16:40:36.593Z,18.42
2023-01-25T16:43:04.106Z,14.23
2023-01-25T16:45:31.392Z,16.63
2023-01-25T16:47:57.969Z,14.20
2023-01-25T16:50:24.658Z,14.18
2023-01-25T16:52:51.553Z,15.55
2023-01-25T16:55:19.087Z,13.57
2023-01-25T16:57:49.420Z,15.23
2023-01-25T17:00:16.292Z,13.75
2023-01-25T17:02:56.971Z,15.35
2023-01-25T17:05:27.623Z,12.60
2023-01-25T17:07:54.323Z,12.32
2023-01-25T17:10:20.929Z,15.63
2023-01-25T17:12:47.700Z,12.70
2023-01-25T17:15:14.390Z,12.23
2023-01-25T17:17:41.242Z,12.90
2023-01-25T17:20:09.119Z,12.02
2023-01-25T17:22:37.521Z,13.63
2023-01-25T17:25:05.381Z,11.93
2023-01-25T17:27:32.218Z,12.30
2023-01-25T17:29:58.888Z,10.93
2023-01-25T17:32:25.600Z,11.48
2023-01-25T17:34:53.711Z,12.48
2023-01-25T17:37:20.347Z,10.73
2023-01-25T17:39:47.640Z,11.13
2023-01-25T17:42:14.487Z,10.48
2023-01-25T17:44:41.131Z,10.95
2023-01-25T17:47:07.710Z,9.15
2023-01-25T17:49:34.459Z,9.18
2023-01-25T17:52:02.857Z,10.30
2023-01-25T17:54:29.535Z,10.32
2023-01-25T17:56:56.363Z,9.75
2023-01-25T17:59:23.060Z,9.85
2023-01-25T18:01:50.589Z,10.98
2023-01-25T18:04:17.610Z,10.43
2023-01-25T18:06:44.561Z,9.00
2023-01-25T18:09:11.224Z,11.35
2023-01-25T18:11:39.820Z,11.45
2023-01-25T18:14:08.864Z,10.68
2023-01-25T18:16:37.234Z,9.93
2023-01-25T18:19:03.997Z,10.05
2023-01-25T18:21:31.963Z,10.57
2023-01-25T18:24:01.058Z,9.70
2023-01-25T18:26:31.756Z,12.70
2023-01-25T18:29:03.659Z,12.70
2023-01-25T18:31:30.647Z,11.70
2023-01-25T18:33:58.217Z,10.77
2023-01-25T18:36:25.183Z,12.25
2023-01-25T18:38:51.826Z,10.38
2023-01-25T18:41:18.483Z,10.45
2023-01-25T18:43:48.141Z,11.90
2023-01-25T18:46:14.840Z,11.65
2023-01-25T18:48:43.506Z,11.05
2023-01-25T18:51:11.440Z,11.88
2023-01-25T18:53:40.220Z,11.27
2023-01-25T18:56:08.295Z,11.30
2023-01-25T18:58:36.181Z,12.23
2023-01-25T19:01:04.528Z,12.50
2023-01-25T19:03:31.412Z,12.00
2023-01-25T19:05:58.823Z,12.88
2023-01-25T19:08:25.707Z,11.57
2023-01-25T19:11:00.890Z,12.80
2023-01-25T19:13:27.919Z,14.98
2023-01-25T19:16:04.019Z,13.23
2023-01-25T19:18:32.237Z,13.35
2023-01-25T19:20:59.192Z,11.82
2023-01-25T19:23:25.992Z,12.07
2023-01-25T19:25:54.319Z,13.48
2023-01-25T19:28:21.724Z,13.63
2023-01-25T19:30:48.519Z,11.77
2023-01-25T19:33:15.299Z,13.93
2023-01-25T19:35:41.949Z,13.63
2023-01-25T19:38:08.539Z,12.25
2023-01-25T19:40:35.391Z,11.23
2023-01-25T19:43:01.971Z,15.32
2023-01-25T19:45:28.763Z,17.70
2023-01-25T19:47:55.469Z,13.07
2023-01-25T19:50:22.094Z,13.73
2023-01-25T19:52:48.731Z,12.30
2023-01-25T19:55:15.423Z,13.93
2023-01-25T19:57:42.017Z,11.63
2023-01-25T20:00:09.244Z,13.20
2023-01-25T20:02:35.937Z,12.05
2023-01-25T20:05:02.594Z,11.10
2023-01-25T20:07:29.274Z,9.55
2023-01-25T20:09:55.858Z,10.90
2023-01-25T20:12:25.012Z,12.85
2023-01-25T20:14:51.852Z,12.23
2023-01-25T20:17:19.136Z,11.75
2023-01-25T20:19:45.829Z,14.10
2023-01-25T20:22:12.521Z,13.20
2023-01-25T20:24:39.173Z,13.73
2023-01-25T20:27:07.353Z,12.27
2023-01-25T20:29:34.243Z,12.75
2023-01-25T20:32:03.256Z,14.73
2023-01-25T20:34:29.925Z,13.27
2023-01-25T20:36:56.556Z,12.85
2023-01-25T20:39:23.264Z,12.48
2023-01-25T20:41:53.159Z,11.40
2023-01-25T20:44:20.021Z,13.00
2023-01-25T20:46:46.798Z,11.63
2023-01-25T20:49:15.202Z,12.65
2023-01-25T20:51:42.867Z,10.82
2023-01-25T20:54:09.471Z,10.77
2023-01-25T20:56:36.330Z,12.63
2023-01-25T20:59:02.983Z,11.38
2023-01-25T21:01:30.922Z,13.27
2023-01-25T21:03:57.914Z,11.60
2023-01-25T21:06:25.435Z,11.80
2023-01-25T21:08:52.110Z,12.68
2023-01-25T21:11:18.770Z,12.65
2023-01-25T21:13:45.401Z,12.77
2023-01-25T21:16:15.088Z,14.55
2023-01-25T21:18:43.029Z,12.48
2023-01-25T21:21:12.374Z,13.60
2023-01-25T21:23:40.545Z,12.68
2023-01-25T21:26:07.837Z,13.38
2023-01-25T21:28:34.647Z,11.82
2023-01-25T21:31:22.191Z,11.45
2023-01-25T21:33:48.892Z,11.25
2023-01-25T21:36:15.832Z,11.52
2023-01-25T21:38:43.394Z,9.88
2023-01-25T21:41:12.330Z,11.05
2023-01-25T21:43:58.913Z,12.73
2023-01-25T21:46:26.893Z,11.98
2023-01-25T21:49:15.569Z,10.98
2023-01-25T21:51:49.335Z,12.40
2023-01-25T21:54:17.650Z,12.10
2023-01-25T21:56:44.981Z,11.55
2023-01-25T21:59:11.767Z,11.90
2023-01-25T22:01:38.451Z,11.55
2023-01-25T22:04:05.455Z,11.27
2023-01-25T22:06:32.453Z,10.95
2023-01-25T22:08:59.076Z,12.68
2023-01-25T22:11:25.847Z,12.57
2023-01-25T22:13:52.518Z,12.07
2023-01-25T22:16:21.203Z,12.52
2023-01-25T22:18:48.028Z,12.52
2023-01-25T22:21:22.572Z,13.32
2023-01-25T22:23:49.335Z,13.27
2023-01-25T22:26:18.058Z,15.48
2023-01-25T22:28:47.675Z,13.38
2023-01-25T22:31:15.209Z,13.55
2023-01-25T22:33:42.454Z,12.55
2023-01-25T22:36:10.096Z,12.65
2023-01-25T22:38:36.727Z,13.63
2023-01-25T22:41:05.182Z,11.82
2023-01-25T22:43:31.970Z,12.15
2023-01-25T22:45:58.612Z,12.65
2023-01-25T22:48:25.290Z,11.80
2023-01-25T22:50:51.853Z,11.98
2023-01-25T22:53:18.463Z,12.23
2023-01-25T22:55:45.118Z,12.65
2023-01-25T22:58:11.711Z,11.90
2023-01-25T23:00:38.358Z,12.88
2023-01-25T23:03:04.950Z,12.05
2023-01-25T23:05:31.601Z,11.65
2023-01-25T23:07:59.167Z,12.43
2023-01-25T23:10:25.836Z,11.88
2023-01-25T23:12:54.656Z,11.68
2023-01-25T23:15:21.382Z,12.52
2023-01-25T23:18:07.934Z,11.85
2023-01-25T23:20:34.662Z,12.07
2023-01-25T23:23:01.309Z,12.07
2023-01-25T23:25:28.174Z,12.05
2023-01-25T23:27:54.801Z,12.77
2023-01-25T23:30:21.380Z,13.30
2023-01-25T23:32:49.246Z,12.90
2023-01-25T23:35:18.108Z,13.73
2023-01-25T23:37:45.950Z,13.05
2023-01-25T23:40:13.597Z,13.43
2023-01-25T23:42:40.695Z,13.10
2023-01-25T23:45:08.120Z,11.27
2023-01-25T23:47:34.905Z,14.88
2023-01-25T23:50:01.568Z,13.68
2023-01-25T23:52:28.712Z,13.65
2023-01-25T23:54:55.356Z,12.80
2023-01-25T23:57:22.002Z,14.05
2023-01-25T23:59:48.635Z,12.25
